sensor_id;sensor_type;location;lat;lon;timestamp;P1;durP1;ratioP1;P2;durP2;ratioP2
19137;SDS011;68178;52.188;5.598;2023-07-09T00:02:19;17.45;;;15.65;;
19137;SDS011;68178;52.188;5.598;2023-07-09T00:04:46;18.48;;;16.60;;
19137;SDS011;68178;52.188;5.598;2023-07-09T00:07:17;18.33;;;16.38;;
19137;SDS011;68178;52.188;5.598;2023-07-09T00:09:47;17.67;;;15.70;;
19137;SDS011;68178;52.188;5.598;2023-07-09T00:12:13;19.40;;;16.75;;
19137;SDS011;68178;52.188;5.598;2023-07-09T00:14:40;17.20;;;15.45;;
19137;SDS011;68178;52.188;5.598;2023-07-09T00:17:10;18.75;;;15.63;;
19137;SDS011;68178;52.188;5.598;2023-07-09T00:19:37;17.73;;;15.77;;
19137;SDS011;68178;52.188;5.598;2023-07-09T00:22:02;16.65;;;14.95;;
19137;SDS011;68178;52.188;5.598;2023-07-09T00:24:35;16.85;;;14.05;;
19137;SDS011;68178;52.188;5.598;2023-07-09T00:27:00;17.65;;;14.95;;
19137;SDS011;68178;52.188;5.598;2023-07-09T00:29:26;18.33;;;16.42;;
19137;SDS011;68178;52.188;5.598;2023-07-09T00:31:51;19.60;;;16.60;;
19137;SDS011;68178;52.188;5.598;2023-07-09T00:34:17;20.73;;;16.35;;
19137;SDS011;68178;52.188;5.598;2023-07-09T00:36:43;15.88;;;14.38;;
19137;SDS011;68178;52.188;5.598;2023-07-09T00:39:18;16.80;;;14.35;;
19137;SDS011;68178;52.188;5.598;2023-07-09T00:41:45;16.10;;;14.50;;
19137;SDS011;68178;52.188;5.598;2023-07-09T00:49:24;17.45;;;15.20;;
19137;SDS011;68178;52.188;5.598;2023-07-09T00:51:54;16.48;;;14.80;;
19137;SDS011;68178;52.188;5.598;2023-07-09T00:54:26;19.45;;;14.35;;
19137;SDS011;68178;52.188;5.598;2023-07-09T00:56:59;18.10;;;15.10;;
19137;SDS011;68178;52.188;5.598;2023-07-09T00:59:31;16.17;;;14.57;;
19137;SDS011;68178;52.188;5.598;2023-07-09T01:01:57;17.65;;;15.48;;
19137;SDS011;68178;52.188;5.598;2023-07-09T01:04:25;15.50;;;14.10;;
19137;SDS011;68178;52.188;5.598;2023-07-09T01:06:52;15.30;;;13.75;;
19137;SDS011;68178;52.188;5.598;2023-07-09T01:09:19;15.40;;;13.88;;
19137;SDS011;68178;52.188;5.598;2023-07-09T01:11:46;17.90;;;15.45;;
19137;SDS011;68178;52.188;5.598;2023-07-09T01:14:13;16.80;;;15.10;;
19137;SDS011;68178;52.188;5.598;2023-07-09T01:16:46;16.75;;;15.00;;
19137;SDS011;68178;52.188;5.598;2023-07-09T01:19:25;16.90;;;15.20;;
19137;SDS011;68178;52.188;5.598;2023-07-09T01:21:55;17.80;;;15.95;;
19137;SDS011;68178;52.188;5.598;2023-07-09T01:27:11;17.70;;;15.40;;
19137;SDS011;68178;52.188;5.598;2023-07-09T01:29:36;17.05;;;15.30;;
19137;SDS011;68178;52.188;5.598;2023-07-09T01:32:03;16.58;;;14.75;;
19137;SDS011;68178;52.188;5.598;2023-07-09T01:34:31;17.27;;;15.48;;
19137;SDS011;68178;52.188;5.598;2023-07-09T01:36:57;16.65;;;14.80;;
19137;SDS011;68178;52.188;5.598;2023-07-09T01:39:23;16.55;;;14.88;;
19137;SDS011;68178;52.188;5.598;2023-07-09T01:41:50;19.35;;;16.88;;
19137;SDS011;68178;52.188;5.598;2023-07-09T01:44:16;17.67;;;15.77;;
19137;SDS011;68178;52.188;5.598;2023-07-09T01:46:42;17.70;;;15.82;;
19137;SDS011;68178;52.188;5.598;2023-07-09T01:49:08;16.83;;;15.23;;
19137;SDS011;68178;52.188;5.598;2023-07-09T01:51:34;17.80;;;16.10;;
19137;SDS011;68178;52.188;5.598;2023-07-09T01:54:01;16.75;;;15.15;;
19137;SDS011;68178;52.188;5.598;2023-07-09T01:56:27;18.10;;;16.23;;
19137;SDS011;68178;52.188;5.598;2023-07-09T01:58:54;17.15;;;15.43;;
19137;SDS011;68178;52.188;5.598;2023-07-09T02:01:26;16.40;;;14.73;;
19137;SDS011;68178;52.188;5.598;2023-07-09T02:03:53;17.77;;;15.38;;
19137;SDS011;68178;52.188;5.598;2023-07-09T02:06:18;16.60;;;14.95;;
19137;SDS011;68178;52.188;5.598;2023-07-09T02:08:44;18.25;;;16.33;;
19137;SDS011;68178;52.188;5.598;2023-07-09T02:11:10;17.55;;;15.75;;
19137;SDS011;68178;52.188;5.598;2023-07-09T02:13:36;18.40;;;16.52;;
19137;SDS011;68178;52.188;5.598;2023-07-09T02:16:01;20.17;;;17.40;;
19137;SDS011;68178;52.188;5.598;2023-07-09T02:18:28;21.40;;;17.55;;
19137;SDS011;68178;52.188;5.598;2023-07-09T02:20:54;18.77;;;16.95;;
19137;SDS011;68178;52.188;5.598;2023-07-09T02:23:19;18.85;;;16.73;;
19137;SDS011;68178;52.188;5.598;2023-07-09T02:25:45;20.73;;;17.52;;
19137;SDS011;68178;52.188;5.598;2023-07-09T02:28:10;16.92;;;15.30;;
19137;SDS011;68178;52.188;5.598;2023-07-09T02:30:36;20.58;;;16.20;;
19137;SDS011;68178;52.188;5.598;2023-07-09T02:33:01;18.08;;;16.20;;
19137;SDS011;68178;52.188;5.598;2023-07-09T02:35:27;19.60;;;16.77;;
19137;SDS011;68178;52.188;5.598;2023-07-09T02:37:53;19.38;;;17.48;;
19137;SDS011;68178;52.188;5.598;2023-07-09T02:40:18;19.20;;;16.67;;
19137;SDS011;68178;52.188;5.598;2023-07-09T02:42:44;19.52;;;17.08;;
19137;SDS011;68178;52.188;5.598;2023-07-09T02:45:09;17.40;;;15.55;;
19137;SDS011;68178;52.188;5.598;2023-07-09T02:47:36;16.98;;;15.18;;
19137;SDS011;68178;52.188;5.598;2023-07-09T02:50:01;18.08;;;16.13;;
19137;SDS011;68178;52.188;5.598;2023-07-09T02:52:28;18.20;;;16.25;;
19137;SDS011;68178;52.188;5.598;2023-07-09T02:54:53;16.67;;;14.90;;
19137;SDS011;68178;52.188;5.598;2023-07-09T02:57:19;15.70;;;14.10;;
19137;SDS011;68178;52.188;5.598;2023-07-09T02:59:44;17.90;;;15.95;;
19137;SDS011;68178;52.188;5.598;2023-07-09T03:02:10;16.67;;;14.85;;
19137;SDS011;68178;52.188;5.598;2023-07-09T03:04:36;17.45;;;15.38;;
19137;SDS011;68178;52.188;5.598;2023-07-09T03:07:01;17.10;;;15.30;;
19137;SDS011;68178;52.188;5.598;2023-07-09T03:09:27;16.77;;;15.07;;
19137;SDS011;68178;52.188;5.598;2023-07-09T03:11:53;16.80;;;15.15;;
19137;SDS011;68178;52.188;5.598;2023-07-09T03:14:20;17.50;;;15.70;;
19137;SDS011;68178;52.188;5.598;2023-07-09T03:16:45;16.63;;;14.93;;
19137;SDS011;68178;52.188;5.598;2023-07-09T03:19:11;17.20;;;15.50;;
19137;SDS011;68178;52.188;5.598;2023-07-09T03:21:36;16.77;;;15.05;;
19137;SDS011;68178;52.188;5.598;2023-07-09T03:24:02;16.95;;;15.27;;
19137;SDS011;68178;52.188;5.598;2023-07-09T03:26:28;17.92;;;15.88;;
19137;SDS011;68178;52.188;5.598;2023-07-09T03:28:54;18.27;;;15.82;;
19137;SDS011;68178;52.188;5.598;2023-07-09T03:31:20;18.58;;;16.25;;
19137;SDS011;68178;52.188;5.598;2023-07-09T03:33:47;18.25;;;16.40;;
19137;SDS011;68178;52.188;5.598;2023-07-09T03:36:13;18.30;;;16.60;;
19137;SDS011;68178;52.188;5.598;2023-07-09T03:38:39;18.95;;;16.95;;
19137;SDS011;68178;52.188;5.598;2023-07-09T03:41:04;17.73;;;15.85;;
19137;SDS011;68178;52.188;5.598;2023-07-09T03:43:31;17.08;;;15.27;;
19137;SDS011;68178;52.188;5.598;2023-07-09T03:45:56;15.95;;;14.25;;
19137;SDS011;68178;52.188;5.598;2023-07-09T03:48:22;17.05;;;15.43;;
19137;SDS011;68178;52.188;5.598;2023-07-09T03:50:48;18.13;;;15.80;;
19137;SDS011;68178;52.188;5.598;2023-07-09T03:53:14;15.60;;;13.65;;
19137;SDS011;68178;52.188;5.598;2023-07-09T03:55:41;14.18;;;12.88;;
19137;SDS011;68178;52.188;5.598;2023-07-09T03:58:07;16.55;;;14.00;;
19137;SDS011;68178;52.188;5.598;2023-07-09T04:00:33;18.02;;;16.23;;
19137;SDS011;68178;52.188;5.598;2023-07-09T04:02:59;16.38;;;14.68;;
19137;SDS011;68178;52.188;5.598;2023-07-09T04:05:25;17.50;;;15.70;;
19137;SDS011;68178;52.188;5.598;2023-07-09T04:07:52;18.30;;;16.10;;
19137;SDS011;68178;52.188;5.598;2023-07-09T04:10:18;17.73;;;16.05;;
19137;SDS011;68178;52.188;5.598;2023-07-09T04:12:44;14.52;;;13.02;;
19137;SDS011;68178;52.188;5.598;2023-07-09T04:15:10;17.52;;;15.73;;
19137;SDS011;68178;52.188;5.598;2023-07-09T04:17:37;16.60;;;14.98;;
19137;SDS011;68178;52.188;5.598;2023-07-09T04:20:04;16.10;;;14.60;;
19137;SDS011;68178;52.188;5.598;2023-07-09T04:22:31;17.50;;;15.25;;
19137;SDS011;68178;52.188;5.598;2023-07-09T04:24:56;17.27;;;14.63;;
19137;SDS011;68178;52.188;5.598;2023-07-09T04:27:22;17.35;;;15.20;;
19137;SDS011;68178;52.188;5.598;2023-07-09T04:29:52;17.40;;;15.68;;
19137;SDS011;68178;52.188;5.598;2023-07-09T04:32:18;17.27;;;14.80;;
19137;SDS011;68178;52.188;5.598;2023-07-09T04:34:44;15.07;;;13.50;;
19137;SDS011;68178;52.188;5.598;2023-07-09T04:37:10;14.43;;;12.93;;
19137;SDS011;68178;52.188;5.598;2023-07-09T04:39:41;15.43;;;13.75;;
19137;SDS011;68178;52.188;5.598;2023-07-09T04:42:09;13.50;;;12.20;;
19137;SDS011;68178;52.188;5.598;2023-07-09T04:44:38;16.13;;;14.23;;
19137;SDS011;68178;52.188;5.598;2023-07-09T04:47:05;15.55;;;13.95;;
19137;SDS011;68178;52.188;5.598;2023-07-09T04:49:30;20.92;;;14.48;;
19137;SDS011;68178;52.188;5.598;2023-07-09T04:51:57;16.02;;;14.43;;
19137;SDS011;68178;52.188;5.598;2023-07-09T04:54:24;17.98;;;14.48;;
19137;SDS011;68178;52.188;5.598;2023-07-09T04:56:50;18.25;;;16.23;;
19137;SDS011;68178;52.188;5.598;2023-07-09T04:59:16;18.13;;;15.98;;
19137;SDS011;68178;52.188;5.598;2023-07-09T05:01:41;16.42;;;14.73;;
19137;SDS011;68178;52.188;5.598;2023-07-09T05:04:07;16.17;;;14.52;;
19137;SDS011;68178;52.188;5.598;2023-07-09T05:06:34;16.17;;;14.48;;
19137;SDS011;68178;52.188;5.598;2023-07-09T05:09:00;18.63;;;16.65;;
19137;SDS011;68178;52.188;5.598;2023-07-09T05:11:26;16.98;;;14.93;;
19137;SDS011;68178;52.188;5.598;2023-07-09T05:13:52;17.60;;;15.68;;
19137;SDS011;68178;52.188;5.598;2023-07-09T05:16:17;18.48;;;16.35;;
19137;SDS011;68178;52.188;5.598;2023-07-09T05:18:44;18.50;;;16.50;;
19137;SDS011;68178;52.188;5.598;2023-07-09T05:21:10;21.50;;;19.20;;
19137;SDS011;68178;52.188;5.598;2023-07-09T05:23:36;26.13;;;20.63;;
19137;SDS011;68178;52.188;5.598;2023-07-09T05:26:02;24.00;;;21.48;;
19137;SDS011;68178;52.188;5.598;2023-07-09T05:28:28;25.92;;;21.40;;
19137;SDS011;68178;52.188;5.598;2023-07-09T05:30:55;24.60;;;21.25;;
19137;SDS011;68178;52.188;5.598;2023-07-09T05:33:21;24.42;;;21.80;;
19137;SDS011;68178;52.188;5.598;2023-07-09T05:35:46;24.88;;;20.27;;
19137;SDS011;68178;52.188;5.598;2023-07-09T05:38:12;22.33;;;18.65;;
19137;SDS011;68178;52.188;5.598;2023-07-09T05:40:39;21.48;;;19.08;;
19137;SDS011;68178;52.188;5.598;2023-07-09T05:43:05;28.67;;;21.40;;
19137;SDS011;68178;52.188;5.598;2023-07-09T05:45:31;24.30;;;21.38;;
19137;SDS011;68178;52.188;5.598;2023-07-09T05:48:00;24.58;;;22.00;;
19137;SDS011;68178;52.188;5.598;2023-07-09T05:50:26;26.10;;;23.40;;
19137;SDS011;68178;52.188;5.598;2023-07-09T05:52:53;28.50;;;23.10;;
19137;SDS011;68178;52.188;5.598;2023-07-09T05:55:19;28.13;;;24.00;;
19137;SDS011;68178;52.188;5.598;2023-07-09T05:57:45;30.17;;;25.65;;
19137;SDS011;68178;52.188;5.598;2023-07-09T06:00:11;25.00;;;22.35;;
19137;SDS011;68178;52.188;5.598;2023-07-09T06:02:40;25.17;;;22.67;;
19137;SDS011;68178;52.188;5.598;2023-07-09T06:05:06;27.52;;;24.52;;
19137;SDS011;68178;52.188;5.598;2023-07-09T06:07:35;26.20;;;23.60;;
19137;SDS011;68178;52.188;5.598;2023-07-09T06:10:02;27.65;;;23.83;;
19137;SDS011;68178;52.188;5.598;2023-07-09T06:12:30;25.98;;;22.33;;
19137;SDS011;68178;52.188;5.598;2023-07-09T06:14:55;24.67;;;22.05;;
19137;SDS011;68178;52.188;5.598;2023-07-09T06:17:24;25.50;;;22.75;;
19137;SDS011;68178;52.188;5.598;2023-07-09T06:19:49;26.17;;;23.38;;
19137;SDS011;68178;52.188;5.598;2023-07-09T06:22:15;27.75;;;24.95;;
19137;SDS011;68178;52.188;5.598;2023-07-09T06:24:40;24.27;;;21.77;;
19137;SDS011;68178;52.188;5.598;2023-07-09T06:27:06;24.55;;;21.95;;
19137;SDS011;68178;52.188;5.598;2023-07-09T06:29:34;26.45;;;23.25;;
19137;SDS011;68178;52.188;5.598;2023-07-09T06:31:59;25.42;;;22.90;;
19137;SDS011;68178;52.188;5.598;2023-07-09T06:34:25;26.88;;;24.23;;
19137;SDS011;68178;52.188;5.598;2023-07-09T06:36:51;26.67;;;24.08;;
19137;SDS011;68178;52.188;5.598;2023-07-09T06:39:17;28.05;;;23.83;;
19137;SDS011;68178;52.188;5.598;2023-07-09T06:41:44;28.55;;;24.42;;
19137;SDS011;68178;52.188;5.598;2023-07-09T06:44:10;28.60;;;24.33;;
19137;SDS011;68178;52.188;5.598;2023-07-09T06:46:36;30.00;;;24.95;;
19137;SDS011;68178;52.188;5.598;2023-07-09T06:49:02;25.88;;;23.20;;
19137;SDS011;68178;52.188;5.598;2023-07-09T06:51:29;31.25;;;26.95;;
19137;SDS011;68178;52.188;5.598;2023-07-09T06:53:54;27.20;;;24.17;;
19137;SDS011;68178;52.188;5.598;2023-07-09T06:56:20;28.13;;;24.77;;
19137;SDS011;68178;52.188;5.598;2023-07-09T06:58:45;31.52;;;25.33;;
19137;SDS011;68178;52.188;5.598;2023-07-09T07:01:11;26.92;;;23.38;;
19137;SDS011;68178;52.188;5.598;2023-07-09T07:03:37;28.35;;;25.42;;
19137;SDS011;68178;52.188;5.598;2023-07-09T07:06:03;26.85;;;23.90;;
19137;SDS011;68178;52.188;5.598;2023-07-09T07:08:31;28.85;;;24.85;;
19137;SDS011;68178;52.188;5.598;2023-07-09T07:10:59;28.13;;;25.25;;
19137;SDS011;68178;52.188;5.598;2023-07-09T07:13:34;27.90;;;24.23;;
19137;SDS011;68178;52.188;5.598;2023-07-09T07:16:02;27.60;;;24.73;;
19137;SDS011;68178;52.188;5.598;2023-07-09T07:18:29;27.75;;;24.27;;
19137;SDS011;68178;52.188;5.598;2023-07-09T07:20:54;27.23;;;24.50;;
19137;SDS011;68178;52.188;5.598;2023-07-09T07:23:20;29.60;;;26.50;;
19137;SDS011;68178;52.188;5.598;2023-07-09T07:25:46;29.38;;;26.27;;
19137;SDS011;68178;52.188;5.598;2023-07-09T07:28:12;29.33;;;24.83;;
19137;SDS011;68178;52.188;5.598;2023-07-09T07:30:38;26.90;;;22.25;;
19137;SDS011;68178;52.188;5.598;2023-07-09T07:33:03;28.63;;;23.75;;
19137;SDS011;68178;52.188;5.598;2023-07-09T07:35:29;25.88;;;22.73;;
19137;SDS011;68178;52.188;5.598;2023-07-09T07:37:55;23.08;;;20.95;;
19137;SDS011;68178;52.188;5.598;2023-07-09T07:40:20;27.95;;;21.98;;
19137;SDS011;68178;52.188;5.598;2023-07-09T07:42:46;27.63;;;23.13;;
19137;SDS011;68178;52.188;5.598;2023-07-09T07:45:12;23.85;;;21.25;;
19137;SDS011;68178;52.188;5.598;2023-07-09T07:47:37;25.65;;;20.15;;
19137;SDS011;68178;52.188;5.598;2023-07-09T07:50:04;21.65;;;16.55;;
19137;SDS011;68178;52.188;5.598;2023-07-09T07:52:31;23.27;;;18.73;;
19137;SDS011;68178;52.188;5.598;2023-07-09T07:54:56;25.23;;;19.80;;
19137;SDS011;68178;52.188;5.598;2023-07-09T07:57:24;20.30;;;18.30;;
19137;SDS011;68178;52.188;5.598;2023-07-09T07:59:51;18.40;;;16.42;;
19137;SDS011;68178;52.188;5.598;2023-07-09T08:02:16;20.63;;;17.27;;
19137;SDS011;68178;52.188;5.598;2023-07-09T08:04:42;20.52;;;18.08;;
19137;SDS011;68178;52.188;5.598;2023-07-09T08:07:08;20.65;;;18.45;;
19137;SDS011;68178;52.188;5.598;2023-07-09T08:09:35;20.95;;;17.70;;
19137;SDS011;68178;52.188;5.598;2023-07-09T08:12:01;19.00;;;17.13;;
19137;SDS011;68178;52.188;5.598;2023-07-09T08:14:33;18.48;;;15.13;;
19137;SDS011;68178;52.188;5.598;2023-07-09T08:16:59;17.25;;;15.43;;
19137;SDS011;68178;52.188;5.598;2023-07-09T08:19:25;16.80;;;13.10;;
19137;SDS011;68178;52.188;5.598;2023-07-09T08:21:51;16.40;;;13.95;;
19137;SDS011;68178;52.188;5.598;2023-07-09T08:24:16;15.10;;;13.50;;
19137;SDS011;68178;52.188;5.598;2023-07-09T08:26:42;17.30;;;14.52;;
19137;SDS011;68178;52.188;5.598;2023-07-09T08:29:07;14.85;;;13.23;;
19137;SDS011;68178;52.188;5.598;2023-07-09T08:31:33;15.40;;;12.88;;
19137;SDS011;68178;52.188;5.598;2023-07-09T08:33:59;15.27;;;13.25;;
19137;SDS011;68178;52.188;5.598;2023-07-09T08:36:24;14.48;;;12.32;;
19137;SDS011;68178;52.188;5.598;2023-07-09T08:38:50;14.50;;;12.63;;
19137;SDS011;68178;52.188;5.598;2023-07-09T08:44:22;14.02;;;12.45;;
19137;SDS011;68178;52.188;5.598;2023-07-09T08:49:39;14.15;;;11.68;;
19137;SDS011;68178;52.188;5.598;2023-07-09T08:52:24;16.80;;;10.95;;
19137;SDS011;68178;52.188;5.598;2023-07-09T08:54:57;13.20;;;11.10;;
19137;SDS011;68178;52.188;5.598;2023-07-09T08:57:32;13.63;;;12.10;;
19137;SDS011;68178;52.188;5.598;2023-07-09T09:00:04;14.15;;;10.77;;
19137;SDS011;68178;52.188;5.598;2023-07-09T09:02:45;11.80;;;10.60;;
19137;SDS011;68178;52.188;5.598;2023-07-09T09:05:20;13.77;;;11.57;;
19137;SDS011;68178;52.188;5.598;2023-07-09T09:08:11;13.73;;;11.95;;
19137;SDS011;68178;52.188;5.598;2023-07-09T09:10:56;16.10;;;11.27;;
19137;SDS011;68178;52.188;5.598;2023-07-09T09:13:37;12.07;;;10.75;;
19137;SDS011;68178;52.188;5.598;2023-07-09T09:16:04;11.38;;;10.18;;
19137;SDS011;68178;52.188;5.598;2023-07-09T09:18:49;12.40;;;11.15;;
19137;SDS011;68178;52.188;5.598;2023-07-09T09:21:26;12.23;;;10.52;;
19137;SDS011;68178;52.188;5.598;2023-07-09T09:23:58;14.07;;;10.43;;
19137;SDS011;68178;52.188;5.598;2023-07-09T09:26:32;13.07;;;11.05;;
19137;SDS011;68178;52.188;5.598;2023-07-09T09:28:59;15.15;;;12.48;;
19137;SDS011;68178;52.188;5.598;2023-07-09T09:31:28;15.75;;;11.57;;
19137;SDS011;68178;52.188;5.598;2023-07-09T09:33:55;11.32;;;10.15;;
19137;SDS011;68178;52.188;5.598;2023-07-09T09:36:23;13.25;;;11.45;;
19137;SDS011;68178;52.188;5.598;2023-07-09T09:38:50;11.88;;;10.68;;
19137;SDS011;68178;52.188;5.598;2023-07-09T09:41:18;11.50;;;10.32;;
19137;SDS011;68178;52.188;5.598;2023-07-09T09:43:54;12.27;;;10.68;;
19137;SDS011;68178;52.188;5.598;2023-07-09T09:46:22;13.50;;;10.20;;
19137;SDS011;68178;52.188;5.598;2023-07-09T09:48:50;12.25;;;10.52;;
19137;SDS011;68178;52.188;5.598;2023-07-09T09:51:18;18.05;;;12.93;;
19137;SDS011;68178;52.188;5.598;2023-07-09T09:53:46;13.15;;;11.73;;
19137;SDS011;68178;52.188;5.598;2023-07-09T09:56:17;13.80;;;12.48;;
19137;SDS011;68178;52.188;5.598;2023-07-09T09:58:45;14.15;;;11.50;;
19137;SDS011;68178;52.188;5.598;2023-07-09T10:01:14;12.98;;;11.40;;
19137;SDS011;68178;52.188;5.598;2023-07-09T10:03:41;13.63;;;11.50;;
19137;SDS011;68178;52.188;5.598;2023-07-09T10:06:29;14.88;;;13.13;;
19137;SDS011;68178;52.188;5.598;2023-07-09T10:08:54;13.68;;;12.27;;
19137;SDS011;68178;52.188;5.598;2023-07-09T10:11:46;16.08;;;12.18;;
19137;SDS011;68178;52.188;5.598;2023-07-09T10:14:58;12.75;;;11.40;;
19137;SDS011;68178;52.188;5.598;2023-07-09T10:19:49;13.77;;;11.85;;
19137;SDS011;68178;52.188;5.598;2023-07-09T10:22:35;11.95;;;10.60;;
19137;SDS011;68178;52.188;5.598;2023-07-09T10:36:26;12.02;;;10.18;;
19137;SDS011;68178;52.188;5.598;2023-07-09T10:39:04;13.35;;;11.25;;
19137;SDS011;68178;52.188;5.598;2023-07-09T10:41:36;9.90;;;9.00;;
19137;SDS011;68178;52.188;5.598;2023-07-09T10:44:16;11.25;;;10.02;;
19137;SDS011;68178;52.188;5.598;2023-07-09T10:46:49;14.27;;;7.55;;
19137;SDS011;68178;52.188;5.598;2023-07-09T10:49:19;10.93;;;8.10;;
19137;SDS011;68178;52.188;5.598;2023-07-09T10:51:54;9.45;;;8.60;;
19137;SDS011;68178;52.188;5.598;2023-07-09T10:54:29;12.48;;;9.68;;
19137;SDS011;68178;52.188;5.598;2023-07-09T10:57:01;12.35;;;10.32;;
19137;SDS011;68178;52.188;5.598;2023-07-09T10:59:33;8.77;;;7.95;;
19137;SDS011;68178;52.188;5.598;2023-07-09T11:04:43;9.88;;;7.25;;
19137;SDS011;68178;52.188;5.598;2023-07-09T11:07:26;7.15;;;6.45;;
19137;SDS011;68178;52.188;5.598;2023-07-09T11:09:53;7.30;;;6.50;;
19137;SDS011;68178;52.188;5.598;2023-07-09T11:12:38;7.90;;;6.53;;
19137;SDS011;68178;52.188;5.598;2023-07-09T11:15:11;8.65;;;6.20;;
19137;SDS011;68178;52.188;5.598;2023-07-09T11:17:44;9.93;;;9.02;;
19137;SDS011;68178;52.188;5.598;2023-07-09T11:20:24;10.73;;;9.23;;
19137;SDS011;68178;52.188;5.598;2023-07-09T11:23:06;10.30;;;8.40;;
19137;SDS011;68178;52.188;5.598;2023-07-09T11:25:44;10.80;;;7.10;;
19137;SDS011;68178;52.188;5.598;2023-07-09T11:28:11;9.38;;;6.75;;
19137;SDS011;68178;52.188;5.598;2023-07-09T11:30:48;7.20;;;5.75;;
19137;SDS011;68178;52.188;5.598;2023-07-09T11:33:19;7.72;;;6.05;;
19137;SDS011;68178;52.188;5.598;2023-07-09T11:35:52;6.82;;;5.68;;
19137;SDS011;68178;52.188;5.598;2023-07-09T11:38:36;8.10;;;5.75;;
19137;SDS011;68178;52.188;5.598;2023-07-09T11:41:22;7.32;;;5.63;;
19137;SDS011;68178;52.188;5.598;2023-07-09T11:47:32;11.68;;;10.48;;
19137;SDS011;68178;52.188;5.598;2023-07-09T11:49:51;13.80;;;11.02;;
19137;SDS011;68178;52.188;5.598;2023-07-09T11:52:26;12.85;;;11.25;;
19137;SDS011;68178;52.188;5.598;2023-07-09T11:55:16;15.43;;;11.73;;
19137;SDS011;68178;52.188;5.598;2023-07-09T11:57:55;13.82;;;11.82;;
19137;SDS011;68178;52.188;5.598;2023-07-09T12:00:22;12.90;;;11.60;;
19137;SDS011;68178;52.188;5.598;2023-07-09T12:02:48;14.68;;;13.07;;
19137;SDS011;68178;52.188;5.598;2023-07-09T12:05:19;12.48;;;11.20;;
19137;SDS011;68178;52.188;5.598;2023-07-09T12:07:46;12.77;;;11.35;;
19137;SDS011;68178;52.188;5.598;2023-07-09T12:10:18;12.68;;;11.38;;
19137;SDS011;68178;52.188;5.598;2023-07-09T12:12:46;12.65;;;11.35;;
19137;SDS011;68178;52.188;5.598;2023-07-09T12:15:19;15.57;;;11.10;;
19137;SDS011;68178;52.188;5.598;2023-07-09T12:18:31;13.48;;;11.95;;
19137;SDS011;68178;52.188;5.598;2023-07-09T12:20:37;13.25;;;11.95;;
19137;SDS011;68178;52.188;5.598;2023-07-09T12:23:09;12.88;;;11.77;;
19137;SDS011;68178;52.188;5.598;2023-07-09T12:25:46;17.30;;;12.75;;
19137;SDS011;68178;52.188;5.598;2023-07-09T12:28:16;14.32;;;12.13;;
19137;SDS011;68178;52.188;5.598;2023-07-09T12:30:46;12.48;;;11.15;;
19137;SDS011;68178;52.188;5.598;2023-07-09T12:33:17;14.45;;;12.63;;
19137;SDS011;68178;52.188;5.598;2023-07-09T12:35:44;15.32;;;12.35;;
19137;SDS011;68178;52.188;5.598;2023-07-09T12:38:17;15.15;;;13.43;;
19137;SDS011;68178;52.188;5.598;2023-07-09T12:40:45;13.48;;;12.05;;
19137;SDS011;68178;52.188;5.598;2023-07-09T12:43:13;13.30;;;11.90;;
19137;SDS011;68178;52.188;5.598;2023-07-09T12:45:38;12.20;;;10.88;;
19137;SDS011;68178;52.188;5.598;2023-07-09T12:48:04;12.65;;;11.32;;
19137;SDS011;68178;52.188;5.598;2023-07-09T12:50:34;14.45;;;11.68;;
19137;SDS011;68178;52.188;5.598;2023-07-09T12:53:19;13.23;;;11.70;;
19137;SDS011;68178;52.188;5.598;2023-07-09T12:55:46;12.30;;;11.05;;
19137;SDS011;68178;52.188;5.598;2023-07-09T12:58:19;13.00;;;10.75;;
19137;SDS011;68178;52.188;5.598;2023-07-09T13:00:49;12.80;;;11.43;;
19137;SDS011;68178;52.188;5.598;2023-07-09T13:03:17;10.63;;;9.63;;
19137;SDS011;68178;52.188;5.598;2023-07-09T13:06:02;10.05;;;9.05;;
19137;SDS011;68178;52.188;5.598;2023-07-09T13:08:32;9.90;;;9.00;;
19137;SDS011;68178;52.188;5.598;2023-07-09T13:11:13;13.38;;;10.05;;
19137;SDS011;68178;52.188;5.598;2023-07-09T13:13:40;11.20;;;9.55;;
19137;SDS011;68178;52.188;5.598;2023-07-09T13:16:06;11.20;;;10.10;;
19137;SDS011;68178;52.188;5.598;2023-07-09T13:18:32;10.98;;;9.02;;
19137;SDS011;68178;52.188;5.598;2023-07-09T13:20:57;10.70;;;9.57;;
19137;SDS011;68178;52.188;5.598;2023-07-09T13:23:26;10.30;;;9.30;;
19137;SDS011;68178;52.188;5.598;2023-07-09T13:25:53;12.60;;;10.10;;
19137;SDS011;68178;52.188;5.598;2023-07-09T13:28:25;11.18;;;10.07;;
19137;SDS011;68178;52.188;5.598;2023-07-09T13:31:17;13.90;;;8.80;;
19137;SDS011;68178;52.188;5.598;2023-07-09T13:33:43;10.43;;;8.88;;
19137;SDS011;68178;52.188;5.598;2023-07-09T13:36:09;9.90;;;8.88;;
19137;SDS011;68178;52.188;5.598;2023-07-09T13:38:36;11.27;;;8.45;;
19137;SDS011;68178;52.188;5.598;2023-07-09T13:41:20;9.80;;;8.80;;
19137;SDS011;68178;52.188;5.598;2023-07-09T13:43:47;10.02;;;7.88;;
19137;SDS011;68178;52.188;5.598;2023-07-09T13:46:14;12.40;;;7.60;;
19137;SDS011;68178;52.188;5.598;2023-07-09T13:48:40;10.75;;;8.20;;
19137;SDS011;68178;52.188;5.598;2023-07-09T13:51:14;10.50;;;8.40;;
19137;SDS011;68178;52.188;5.598;2023-07-09T13:53:53;9.65;;;7.82;;
19137;SDS011;68178;52.188;5.598;2023-07-09T13:56:19;12.77;;;8.93;;
19137;SDS011;68178;52.188;5.598;2023-07-09T13:58:45;13.38;;;8.27;;
19137;SDS011;68178;52.188;5.598;2023-07-09T14:01:13;8.70;;;7.85;;
19137;SDS011;68178;52.188;5.598;2023-07-09T14:03:40;11.63;;;8.70;;
19137;SDS011;68178;52.188;5.598;2023-07-09T14:06:16;12.73;;;9.10;;
19137;SDS011;68178;52.188;5.598;2023-07-09T14:08:43;9.55;;;8.55;;
19137;SDS011;68178;52.188;5.598;2023-07-09T14:11:12;11.45;;;7.72;;
19137;SDS011;68178;52.188;5.598;2023-07-09T14:13:40;10.07;;;8.20;;
19137;SDS011;68178;52.188;5.598;2023-07-09T14:16:08;9.07;;;7.47;;
19137;SDS011;68178;52.188;5.598;2023-07-09T14:18:35;7.45;;;6.70;;
19137;SDS011;68178;52.188;5.598;2023-07-09T14:21:03;8.93;;;7.20;;
19137;SDS011;68178;52.188;5.598;2023-07-09T14:23:36;11.38;;;5.50;;
19137;SDS011;68178;52.188;5.598;2023-07-09T14:26:02;6.60;;;3.92;;
19137;SDS011;68178;52.188;5.598;2023-07-09T14:28:27;5.95;;;3.80;;
19137;SDS011;68178;52.188;5.598;2023-07-09T14:30:53;7.05;;;4.35;;
19137;SDS011;68178;52.188;5.598;2023-07-09T14:33:20;7.30;;;3.90;;
19137;SDS011;68178;52.188;5.598;2023-07-09T14:35:47;6.93;;;3.40;;
19137;SDS011;68178;52.188;5.598;2023-07-09T14:38:20;6.95;;;3.53;;
19137;SDS011;68178;52.188;5.598;2023-07-09T14:40:49;8.73;;;3.78;;
19137;SDS011;68178;52.188;5.598;2023-07-09T14:43:19;6.15;;;3.97;;
19137;SDS011;68178;52.188;5.598;2023-07-09T14:45:45;9.00;;;3.63;;
19137;SDS011;68178;52.188;5.598;2023-07-09T14:48:13;5.35;;;4.07;;
19137;SDS011;68178;52.188;5.598;2023-07-09T14:50:40;10.05;;;4.35;;
19137;SDS011;68178;52.188;5.598;2023-07-09T14:53:14;9.27;;;4.78;;
19137;SDS011;68178;52.188;5.598;2023-07-09T14:55:42;6.97;;;4.00;;
19137;SDS011;68178;52.188;5.598;2023-07-09T14:58:16;9.50;;;4.22;;
19137;SDS011;68178;52.188;5.598;2023-07-09T15:00:43;6.90;;;4.90;;
19137;SDS011;68178;52.188;5.598;2023-07-09T15:03:11;8.13;;;4.88;;
19137;SDS011;68178;52.188;5.598;2023-07-09T15:05:43;14.27;;;5.93;;
19137;SDS011;68178;52.188;5.598;2023-07-09T15:08:16;18.65;;;7.63;;
19137;SDS011;68178;52.188;5.598;2023-07-09T15:10:43;18.98;;;8.48;;